Time;durP1;ratioP1;P1;durP2;ratioP2;P2;SDS_P1;SDS_P2;PMS_P1;PMS_P2;Temp;Humidity;BMP_temperature;BMP_pressure;BME280_temperature;BME280_humidity;BME280_pressure;Samples;Min_cycle;Max_cycle;Signal;HPM_P1;HPM_P2
2022/12/27 00:00:52;;;;;;;2.90;1.50;;;6.30;99.90;;;;;;6341983;22;20174;-87
2022/12/27 00:03:19;;;;;;;3.43;1.57;;;6.30;99.90;;;;;;6341308;22;20252;-87
2022/12/27 00:05:46;;;;;;;2.00;1.30;;;6.30;99.90;;;;;;6314129;22;20254;-87
2022/12/27 00:08:14;;;;;;;3.60;1.20;;;6.30;99.90;;;;;;6314158;22;20186;-88
2022/12/27 00:10:40;;;;;;;2.43;1.20;;;6.30;99.90;;;;;;6342613;22;20162;-87
2022/12/27 00:13:06;;;;;;;4.67;1.83;;;6.30;99.90;;;;;;6314332;22;20183;-87
2022/12/27 00:15:36;;;;;;;1.27;1.17;;;6.30;99.90;;;;;;6314165;22;20179;-87
2022/12/27 00:18:02;;;;;;;1.47;1.20;;;6.40;99.90;;;;;;6314324;22;20165;-87
2022/12/27 00:20:27;;;;;;;1.70;1.27;;;6.40;99.90;;;;;;6316562;22;20154;-88
2022/12/27 00:22:53;;;;;;;0.80;0.80;;;6.40;99.90;;;;;;6316297;22;20254;-88
2022/12/27 00:25:19;;;;;;;1.80;1.30;;;6.30;99.90;;;;;;6316848;22;20154;-87
2022/12/27 00:27:45;;;;;;;1.00;0.90;;;6.30;99.90;;;;;;6316621;22;20160;-88
2022/12/27 00:30:11;;;;;;;2.73;1.90;;;6.30;99.90;;;;;;6342502;22;20182;-88
2022/12/27 00:32:38;;;;;;;1.53;1.07;;;6.20;99.90;;;;;;6316706;22;20244;-88
2022/12/27 00:35:04;;;;;;;2.80;1.27;;;6.20;99.90;;;;;;6342278;22;20181;-87
2022/12/27 00:37:30;;;;;;;2.77;1.37;;;6.20;99.90;;;;;;6370354;22;20202;-88
2022/12/27 00:39:56;;;;;;;1.90;1.37;;;6.30;99.90;;;;;;6342786;22;20195;-88
2022/12/27 00:42:22;;;;;;;1.40;1.03;;;6.20;99.90;;;;;;6342878;22;20635;-88
2022/12/27 00:44:47;;;;;;;2.07;0.90;;;6.20;99.90;;;;;;6343020;22;20226;-88
2022/12/27 00:47:13;;;;;;;1.60;1.20;;;6.20;99.90;;;;;;6311453;22;20165;-88
2022/12/27 00:49:39;;;;;;;2.00;1.03;;;6.10;99.90;;;;;;6339140;22;20158;-87
2022/12/27 00:52:05;;;;;;;3.80;1.20;;;6.10;99.90;;;;;;6316378;22;20178;-88
2022/12/27 00:54:31;;;;;;;3.20;1.20;;;6.00;99.90;;;;;;6342055;22;20390;-88
2022/12/27 00:56:56;;;;;;;2.33;1.20;;;6.00;99.90;;;;;;6342190;22;20176;-88
2022/12/27 00:59:22;;;;;;;1.27;0.90;;;5.90;99.90;;;;;;6342352;22;20153;-88
2022/12/27 01:01:48;;;;;;;3.30;1.20;;;5.90;99.90;;;;;;6316629;22;20579;-88
2022/12/27 01:04:14;;;;;;;2.20;1.10;;;5.80;99.90;;;;;;6316521;22;20185;-88
2022/12/27 01:06:40;;;;;;;3.00;1.20;;;5.80;99.90;;;;;;6316001;22;20158;-87
2022/12/27 01:09:06;;;;;;;2.33;1.10;;;5.70;99.90;;;;;;6342214;22;20226;-87
2022/12/27 01:11:32;;;;;;;4.33;1.40;;;5.70;99.90;;;;;;6316408;22;20172;-87
2022/12/27 01:14:00;;;;;;;3.40;1.10;;;5.70;99.90;;;;;;6341779;22;20231;-88
2022/12/27 01:16:28;;;;;;;1.30;1.20;;;5.60;99.90;;;;;;6316390;22;20156;-87
2022/12/27 01:18:54;;;;;;;1.80;1.20;;;5.60;99.90;;;;;;6315867;22;20242;-87
2022/12/27 01:21:23;;;;;;;2.47;1.40;;;5.50;99.90;;;;;;6342373;22;20158;-88
2022/12/27 01:23:49;;;;;;;3.80;1.53;;;5.50;99.90;;;;;;6316538;22;20154;-88
2022/12/27 01:26:18;;;;;;;2.10;1.33;;;5.40;99.90;;;;;;6341943;22;20189;-87
2022/12/27 01:28:45;;;;;;;2.30;1.27;;;5.40;99.90;;;;;;6316135;22;20157;-88
2022/12/27 01:31:20;;;;;;;1.67;1.27;;;5.40;99.90;;;;;;6315794;22;20164;-88
2022/12/27 01:33:46;;;;;;;3.83;1.50;;;5.30;99.90;;;;;;6316531;22;20147;-88
2022/12/27 01:36:22;;;;;;;3.90;1.60;;;5.30;99.90;;;;;;6342217;22;20262;-88
2022/12/27 01:38:48;;;;;;;1.93;1.47;;;5.20;99.90;;;;;;6315781;22;20147;-87
2022/12/27 01:47:32;;;;;;;2.33;1.23;;;5.10;99.90;;;;;;6341827;22;20159;-88
2022/12/27 01:50:02;;;;;;;2.43;1.20;;;5.10;99.90;;;;;;6342142;22;20158;-87
2022/12/27 01:52:59;;;;;;;1.50;1.00;;;5.10;99.90;;;;;;6369412;22;20184;-88
2022/12/27 01:55:50;;;;;;;1.50;1.20;;;5.00;99.90;;;;;;6309816;22;20181;-87
2022/12/27 01:58:25;;;;;;;2.63;1.13;;;4.90;99.90;;;;;;6315768;22;20144;-87
2022/12/27 02:00:52;;;;;;;1.47;1.10;;;4.90;99.90;;;;;;6314994;22;20171;-88
2022/12/27 02:03:34;;;;;;;1.40;0.93;;;4.90;99.90;;;;;;6316067;22;20179;-87
2022/12/27 02:06:03;;;;;;;5.80;0.90;;;4.90;99.90;;;;;;6341432;22;20148;-87
2022/12/27 02:08:38;;;;;;;2.67;0.90;;;4.90;99.90;;;;;;6311866;22;20168;-88
2022/12/27 02:11:05;;;;;;;1.73;1.10;;;4.80;99.90;;;;;;6315432;22;20159;-87
2022/12/27 02:13:34;;;;;;;2.00;0.90;;;4.80;99.90;;;;;;6340808;22;20178;-87
2022/12/27 02:16:00;;;;;;;1.20;0.90;;;4.70;99.90;;;;;;6314354;22;20186;-87
2022/12/27 02:18:26;;;;;;;2.03;0.73;;;4.70;99.90;;;;;;6315823;22;20155;-87
2022/12/27 02:21:14;;;;;;;1.03;0.70;;;4.70;99.90;;;;;;6341922;22;20161;-87
2022/12/27 02:24:01;;;;;;;1.80;1.00;;;4.70;99.90;;;;;;6315792;22;20152;-87
2022/12/27 02:26:49;;;;;;;1.13;1.00;;;4.60;99.90;;;;;;6317679;22;20170;-87
2022/12/27 02:30:12;;;;;;;0.90;0.80;;;4.50;99.90;;;;;;6317770;22;20152;-87
2022/12/27 02:32:51;;;;;;;1.40;1.00;;;4.50;99.90;;;;;;6247328;22;20179;-87
2022/12/27 02:35:20;;;;;;;1.80;1.10;;;4.40;99.90;;;;;;6317934;22;20182;-87
2022/12/27 02:37:54;;;;;;;3.63;1.13;;;4.30;99.90;;;;;;6317648;22;20161;-87
2022/12/27 02:55:03;;;;;;;2.13;1.17;;;4.00;99.90;;;;;;6343193;22;20227;-87
2022/12/27 02:58:07;;;;;;;2.97;1.10;;;4.00;99.90;;;;;;6343733;22;20139;-87
2022/12/27 03:03:46;;;;;;;2.10;1.30;;;3.90;99.90;;;;;;6343278;22;20150;-88
2022/12/27 03:06:39;;;;;;;2.80;1.20;;;3.90;99.90;;;;;;6317382;22;20159;-87
2022/12/27 03:15:53;;;;;;;1.83;0.97;;;3.80;99.90;;;;;;6334369;22;20149;-88
2022/12/27 03:18:01;;;;;;;3.83;1.67;;;3.70;99.90;;;;;;6343043;22;20199;-88
2022/12/27 03:26:02;;;;;;;2.07;1.03;;;3.60;99.90;;;;;;6342915;22;20232;-88
2022/12/27 03:39:46;;;;;;;1.93;1.17;;;3.30;99.90;;;;;;6343178;22;20139;-88
2022/12/27 03:45:05;;;;;;;2.13;1.60;;;3.20;99.90;;;;;;6370951;22;20141;-88
2022/12/27 03:47:42;;;;;;;2.53;1.43;;;3.10;99.90;;;;;;6342965;22;20158;-88
2022/12/27 03:50:39;;;;;;;5.03;1.50;;;3.00;99.90;;;;;;6343126;22;20276;-88
2022/12/27 03:53:25;;;;;;;2.10;1.17;;;3.00;99.90;;;;;;6368355;22;20637;-88
2022/12/27 03:55:51;;;;;;;3.00;1.60;;;3.00;99.90;;;;;;6342746;22;20181;-88
2022/12/27 03:58:17;;;;;;;2.03;1.50;;;2.90;99.90;;;;;;6316754;22;20231;-88
2022/12/27 04:00:43;;;;;;;2.70;1.60;;;2.80;99.90;;;;;;6316924;22;20147;-88
2022/12/27 04:03:09;;;;;;;3.93;1.63;;;2.80;99.90;;;;;;6342650;22;20188;-88
2022/12/27 04:05:34;;;;;;;4.10;1.40;;;2.80;99.90;;;;;;6316752;22;20154;-88
2022/12/27 04:35:23;;;;;;;2.73;1.43;;;2.80;99.90;;;;;;6342495;22;20205;-87
2022/12/27 04:37:48;;;;;;;3.30;1.57;;;2.80;99.90;;;;;;6304110;22;20478;-87
2022/12/27 04:56:42;;;;;;;3.43;1.90;;;2.40;99.90;;;;;;6342088;22;20204;-88
2022/12/27 05:02:04;;;;;;;3.80;1.73;;;2.40;99.90;;;;;;6370184;22;20208;-87
2022/12/27 05:04:35;;;;;;;3.53;1.40;;;2.40;99.90;;;;;;6316059;22;20174;-88
2022/12/27 05:13:58;;;;;;;2.37;1.83;;;2.50;99.90;;;;;;6314698;22;20142;-87
2022/12/27 05:16:07;;;;;;;4.10;1.67;;;2.40;99.90;;;;;;6341993;22;20206;-88
2022/12/27 05:18:33;;;;;;;3.50;1.40;;;2.40;99.90;;;;;;6342036;22;20158;-88
2022/12/27 05:21:03;;;;;;;4.53;1.63;;;2.40;99.90;;;;;;6315919;22;20157;-88
2022/12/27 05:26:25;;;;;;;4.80;1.37;;;2.30;99.90;;;;;;6370237;22;20156;-88
2022/12/27 05:28:55;;;;;;;1.37;1.10;;;2.30;99.90;;;;;;6342159;22;20150;-88
2022/12/27 05:31:23;;;;;;;3.57;1.53;;;2.30;99.90;;;;;;6315896;22;20158;-88
2022/12/27 05:33:50;;;;;;;2.57;1.50;;;2.30;99.90;;;;;;6342499;22;20162;-88
2022/12/27 05:36:16;;;;;;;2.83;1.40;;;2.20;99.90;;;;;;6315832;22;20209;-88
2022/12/27 05:38:42;;;;;;;2.37;1.40;;;2.20;99.90;;;;;;6341789;22;20233;-88
2022/12/27 05:41:08;;;;;;;1.73;1.50;;;2.20;99.90;;;;;;6315671;22;20209;-88
2022/12/27 05:43:34;;;;;;;3.40;1.20;;;2.20;99.90;;;;;;6342619;22;20146;-88
2022/12/27 05:46:09;;;;;;;3.63;1.50;;;2.20;99.90;;;;;;6316250;22;20150;-87
2022/12/27 05:48:35;;;;;;;3.53;1.80;;;2.20;99.90;;;;;;6341894;22;20221;-87
2022/12/27 05:51:10;;;;;;;4.23;1.23;;;2.20;99.90;;;;;;6315482;22;20203;-88
2022/12/27 05:53:36;;;;;;;2.07;1.43;;;2.10;99.90;;;;;;6341987;22;20210;-88
2022/12/27 05:56:17;;;;;;;2.03;1.50;;;1.80;99.90;;;;;;6342373;22;20212;-88
2022/12/27 05:58:43;;;;;;;2.47;1.47;;;1.80;99.90;;;;;;6315325;22;20226;-87
2022/12/27 06:01:10;;;;;;;3.27;1.23;;;1.80;99.90;;;;;;6315372;22;20200;-88
2022/12/27 06:03:36;;;;;;;2.07;1.50;;;1.80;99.90;;;;;;6342168;22;20142;-88
2022/12/27 06:06:03;;;;;;;2.27;1.60;;;1.70;99.90;;;;;;6369765;22;20168;-88
2022/12/27 06:08:30;;;;;;;3.53;1.83;;;1.70;99.90;;;;;;6315886;22;20186;-88
2022/12/27 06:11:17;;;;;;;5.97;2.17;;;1.60;99.90;;;;;;6315911;22;20154;-88
2022/12/27 06:13:48;;;;;;;2.60;1.60;;;1.60;99.90;;;;;;6316074;22;20177;-88
2022/12/27 06:16:14;;;;;;;2.63;1.73;;;1.60;99.90;;;;;;6341885;22;20182;-88
2022/12/27 06:18:41;;;;;;;3.63;2.07;;;1.60;99.90;;;;;;6342104;22;20143;-88
2022/12/27 06:21:16;;;;;;;2.67;1.57;;;1.60;99.90;;;;;;6342360;22;20165;-88
2022/12/27 06:23:46;;;;;;;3.77;2.37;;;1.60;99.90;;;;;;6316563;22;20153;-87
2022/12/27 06:26:18;;;;;;;2.57;1.60;;;1.50;99.90;;;;;;6317996;22;20158;-88
2022/12/27 06:28:44;;;;;;;5.03;2.27;;;1.40;99.90;;;;;;6345423;22;20195;-88
2022/12/27 06:31:10;;;;;;;2.50;1.63;;;1.40;99.90;;;;;;6318308;22;20158;-88
2022/12/27 06:33:36;;;;;;;6.60;2.13;;;1.40;99.90;;;;;;6318754;22;20188;-88
2022/12/27 06:36:10;;;;;;;5.47;2.13;;;1.40;99.90;;;;;;6315893;22;20181;-88
2022/12/27 06:38:36;;;;;;;3.20;2.03;;;1.40;99.90;;;;;;6315423;22;20232;-88
2022/12/27 06:41:03;;;;;;;4.10;2.50;;;1.40;99.90;;;;;;6341691;22;20652;-88
2022/12/27 06:43:29;;;;;;;3.97;2.60;;;1.40;99.90;;;;;;6315473;22;20170;-88
2022/12/27 06:45:57;;;;;;;3.53;2.73;;;1.40;99.90;;;;;;6342061;22;20161;-88
2022/12/27 06:48:23;;;;;;;4.70;2.50;;;1.40;99.90;;;;;;6315441;22;20482;-88
2022/12/27 06:50:49;;;;;;;3.23;2.33;;;1.40;99.90;;;;;;6315252;22;20158;-88
2022/12/27 06:53:15;;;;;;;4.67;2.27;;;1.40;99.90;;;;;;6315237;22;20208;-89
2022/12/27 06:55:40;;;;;;;3.77;2.30;;;1.30;99.90;;;;;;6314004;22;20183;-88
2022/12/27 06:58:06;;;;;;;3.40;2.23;;;1.30;99.90;;;;;;6316615;22;20161;-89
2022/12/27 07:00:32;;;;;;;3.60;2.30;;;1.20;99.90;;;;;;6341614;22;20288;-89
2022/12/27 07:02:58;;;;;;;3.93;2.40;;;1.20;99.90;;;;;;6341553;22;20189;-89
2022/12/27 07:05:23;;;;;;;4.13;2.20;;;1.10;99.90;;;;;;6315926;22;20165;-89
2022/12/27 07:07:55;;;;;;;3.13;2.30;;;1.10;99.90;;;;;;6315579;22;20597;-88
2022/12/27 07:10:21;;;;;;;4.23;2.43;;;1.20;99.90;;;;;;6315358;22;20244;-88
2022/12/27 07:12:47;;;;;;;3.80;2.67;;;1.20;99.90;;;;;;6343280;22;20205;-88
2022/12/27 07:15:13;;;;;;;6.40;3.13;;;1.20;99.90;;;;;;6317416;22;20188;-89
2022/12/27 07:17:39;;;;;;;3.77;2.60;;;1.10;99.90;;;;;;6316971;22;20212;-88
2022/12/27 07:20:06;;;;;;;4.30;2.57;;;1.10;99.90;;;;;;6317397;22;20245;-88
2022/12/27 07:22:32;;;;;;;2.87;2.20;;;1.10;99.90;;;;;;6343140;22;20181;-88
2022/12/27 07:24:58;;;;;;;5.80;2.47;;;1.00;99.90;;;;;;6317575;22;20157;-88
2022/12/27 07:27:24;;;;;;;3.90;2.80;;;1.00;99.90;;;;;;6316738;22;20154;-89
2022/12/27 07:29:50;;;;;;;6.90;4.23;;;1.00;99.90;;;;;;6343321;22;20176;-88
2022/12/27 07:32:16;;;;;;;7.83;2.90;;;1.00;99.90;;;;;;6343015;22;20182;-88
2022/12/27 07:34:42;;;;;;;6.00;3.30;;;1.00;99.90;;;;;;6331387;22;20189;-88
2022/12/27 07:37:08;;;;;;;6.10;3.30;;;1.00;99.90;;;;;;6343424;22;20145;-88
2022/12/27 07:39:34;;;;;;;4.07;2.67;;;1.00;99.90;;;;;;6328509;22;20176;-88
2022/12/27 07:42:00;;;;;;;6.30;3.30;;;1.00;99.90;;;;;;6343610;22;20231;-89
2022/12/27 07:44:25;;;;;;;10.10;3.20;;;1.00;99.90;;;;;;6317648;22;20161;-89
2022/12/27 07:46:51;;;;;;;10.50;3.97;;;1.00;99.90;;;;;;6317806;22;20154;-89
2022/12/27 07:49:19;;;;;;;4.93;3.80;;;1.00;99.90;;;;;;6343949;22;20248;-88
2022/12/27 07:51:45;;;;;;;5.27;3.30;;;1.00;99.90;;;;;;6342093;22;20174;-89
2022/12/27 07:54:11;;;;;;;4.50;3.53;;;1.10;99.90;;;;;;6316106;22;20162;-88
2022/12/27 07:56:37;;;;;;;9.60;3.27;;;1.20;99.90;;;;;;6316020;22;20162;-88
2022/12/27 07:59:03;;;;;;;5.03;3.47;;;1.20;99.90;;;;;;6342305;22;20249;-87
2022/12/27 08:02:02;;;;;;;5.23;4.07;;;1.30;99.90;;;;;;6314409;22;20212;-88
2022/12/27 08:04:19;;;;;;;6.80;4.20;;;1.40;99.90;;;;;;6342714;22;20149;-87
2022/12/27 08:06:45;;;;;;;6.33;4.10;;;1.50;99.90;;;;;;6316936;22;20295;-88
2022/12/27 08:09:27;;;;;;;4.83;3.67;;;1.50;99.90;;;;;;6316231;22;20191;-88
2022/12/27 08:11:53;;;;;;;5.53;3.80;;;1.60;99.90;;;;;;6316640;22;20175;-88
2022/12/27 08:14:19;;;;;;;4.37;3.50;;;1.50;99.90;;;;;;6316529;22;20154;-87
2022/12/27 08:16:45;;;;;;;5.63;4.07;;;1.60;99.90;;;;;;6316891;22;20200;-88
2022/12/27 08:19:10;;;;;;;4.80;3.40;;;1.50;99.90;;;;;;6316601;22;20210;-87
2022/12/27 08:21:36;;;;;;;6.20;3.83;;;1.50;99.90;;;;;;6316464;22;20254;-87
2022/12/27 08:24:02;;;;;;;4.33;3.63;;;1.60;99.90;;;;;;6342456;22;20160;-87
2022/12/27 08:26:28;;;;;;;5.60;3.53;;;1.60;99.90;;;;;;6343100;22;20165;-87
2022/12/27 08:29:23;;;;;;;4.00;3.30;;;1.60;99.90;;;;;;6316758;22;20165;-87
2022/12/27 08:31:49;;;;;;;5.13;3.23;;;1.60;99.90;;;;;;6303737;22;20171;-89
2022/12/27 08:34:15;;;;;;;6.13;3.60;;;1.50;99.90;;;;;;6316417;22;20235;-88
2022/12/27 08:36:41;;;;;;;9.00;3.40;;;1.50;99.90;;;;;;6316130;22;20158;-89
2022/12/27 08:39:07;;;;;;;6.17;3.90;;;1.60;99.90;;;;;;6313775;22;20206;-89
2022/12/27 08:41:33;;;;;;;9.10;4.30;;;1.70;99.90;;;;;;6340575;22;20185;-88
2022/12/27 08:43:59;;;;;;;4.97;3.70;;;1.80;99.90;;;;;;6313910;22;20154;-89
2022/12/27 08:46:24;;;;;;;8.43;3.87;;;1.80;99.90;;;;;;6314326;22;20154;-89
2022/12/27 08:48:50;;;;;;;4.90;3.63;;;1.90;99.90;;;;;;6340014;22;20165;-89
2022/12/27 08:51:17;;;;;;;5.27;4.43;;;2.00;99.90;;;;;;6314481;22;20187;-89
2022/12/27 08:53:43;;;;;;;9.87;7.33;;;2.10;99.90;;;;;;6314089;22;20166;-88
2022/12/27 08:56:09;;;;;;;11.53;8.70;;;2.20;99.90;;;;;;6340234;22;20186;-88
2022/12/27 08:58:35;;;;;;;10.80;6.40;;;2.30;99.90;;;;;;6340409;22;20165;-89
2022/12/27 09:01:06;;;;;;;8.07;5.10;;;2.40;99.90;;;;;;6314328;22;20154;-89
2022/12/27 09:03:32;;;;;;;8.77;6.30;;;2.50;99.90;;;;;;6313759;22;20182;-88
2022/12/27 09:06:14;;;;;;;8.80;7.13;;;2.50;99.90;;;;;;6341280;22;20150;-88
2022/12/27 09:08:41;;;;;;;12.43;7.57;;;2.60;99.90;;;;;;6339957;22;20158;-88
2022/12/27 09:11:22;;;;;;;10.90;7.70;;;2.70;99.90;;;;;;6314087;22;20244;-88
2022/12/27 09:13:48;;;;;;;11.13;7.80;;;2.80;99.90;;;;;;6339853;22;20143;-88
2022/12/27 09:16:16;;;;;;;10.10;7.20;;;2.80;99.90;;;;;;6339912;22;20194;-89
2022/12/27 09:18:45;;;;;;;11.50;7.47;;;2.90;99.90;;;;;;6313494;22;20182;-89
2022/12/27 09:21:13;;;;;;;10.43;6.47;;;3.00;99.90;;;;;;6340034;22;20283;-89
2022/12/27 09:23:40;;;;;;;10.30;6.20;;;3.10;99.90;;;;;;6313214;22;20184;-89
2022/12/27 09:26:08;;;;;;;8.03;5.00;;;3.30;99.90;;;;;;6339547;22;20223;-88
2022/12/27 09:28:35;;;;;;;8.00;5.13;;;3.40;99.90;;;;;;6315040;22;20189;-88
2022/12/27 09:31:01;;;;;;;6.10;4.83;;;3.50;99.90;;;;;;6342248;22;20180;-88
2022/12/27 09:33:28;;;;;;;7.67;5.20;;;3.60;99.90;;;;;;6315388;22;20183;-89
2022/12/27 09:36:06;;;;;;;6.67;4.67;;;3.70;99.90;;;;;;6315368;22;20268;-89
2022/12/27 09:39:19;;;;;;;9.40;4.70;;;3.90;99.90;;;;;;6341429;22;20145;-89
2022/12/27 09:42:10;;;;;;;5.27;2.77;;;4.00;99.90;;;;;;6340339;22;20687;-89
2022/12/27 09:44:51;;;;;;;4.10;2.80;;;4.10;99.90;;;;;;6313827;22;20146;-89
2022/12/27 09:47:45;;;;;;;3.50;2.67;;;4.20;99.90;;;;;;6340321;22;20143;-89
2022/12/27 09:50:22;;;;;;;4.30;2.60;;;4.40;99.90;;;;;;6305994;22;20196;-89
2022/12/27 09:52:57;;;;;;;3.60;2.50;;;4.50;99.90;;;;;;6313263;22;20220;-89
2022/12/27 09:59:34;;;;;;;4.83;2.20;;;4.70;99.90;;;;;;6355372;22;20181;-89
2022/12/27 10:02:01;;;;;;;5.37;2.30;;;4.80;99.90;;;;;;6302857;22;20186;-88
2022/12/27 10:04:33;;;;;;;4.03;1.83;;;4.90;99.90;;;;;;6313361;22;20246;-89
2022/12/27 10:07:12;;;;;;;3.83;1.77;;;5.00;99.90;;;;;;6313822;22;20144;-89
2022/12/27 10:09:58;;;;;;;1.60;1.47;;;5.10;99.90;;;;;;6309702;22;20215;-32
2022/12/27 10:12:43;;;;;;;4.33;1.80;;;5.20;99.90;;;;;;6336073;22;20140;-41
2022/12/27 10:15:50;;;;;;;2.10;1.60;;;5.30;99.90;;;;;;6307422;22;20187;-42
2022/12/27 10:18:28;;;;;;;3.87;2.27;;;5.30;99.90;;;;;;6275214;22;20476;-41
2022/12/27 10:21:25;;;;;;;2.90;1.83;;;5.30;99.90;;;;;;6277624;22;20158;-43
2022/12/27 10:24:04;;;;;;;4.97;2.30;;;5.40;99.90;;;;;;6304223;22;20161;-44
2022/12/27 10:26:30;;;;;;;4.87;2.70;;;5.40;99.90;;;;;;6303962;22;20229;-43
2022/12/27 10:29:17;;;;;;;4.60;2.47;;;5.40;99.90;;;;;;6251113;22;20154;-43
2022/12/27 10:31:43;;;;;;;5.23;2.53;;;5.40;99.90;;;;;;6304405;22;20138;-44
2022/12/27 10:34:14;;;;;;;6.73;2.60;;;5.50;99.90;;;;;;6251039;22;20159;-43
2022/12/27 10:36:41;;;;;;;3.23;2.17;;;5.50;99.90;;;;;;6276663;22;20196;-43
2022/12/27 10:39:22;;;;;;;3.90;2.90;;;5.60;99.90;;;;;;6303545;22;20153;-43
2022/12/27 10:42:14;;;;;;;3.93;2.27;;;5.70;99.90;;;;;;6250742;22;20165;-43
2022/12/27 10:44:40;;;;;;;5.37;3.20;;;5.70;99.90;;;;;;6250538;22;20155;-43
2022/12/27 10:47:06;;;;;;;5.23;2.80;;;5.80;99.90;;;;;;6277949;22;20181;-43
2022/12/27 10:49:33;;;;;;;5.47;2.87;;;5.90;99.90;;;;;;6306104;22;20193;-43
2022/12/27 10:52:22;;;;;;;2.93;2.23;;;6.00;99.90;;;;;;6279759;22;20146;-42
2022/12/27 10:54:55;;;;;;;4.43;2.33;;;6.00;99.90;;;;;;6252789;22;20179;-44
2022/12/27 10:57:32;;;;;;;4.47;2.23;;;6.00;99.90;;;;;;6278474;22;20198;-41
2022/12/27 11:00:21;;;;;;;4.63;2.23;;;6.00;99.90;;;;;;6278617;22;20144;-44
2022/12/27 11:02:55;;;;;;;5.43;1.90;;;6.00;99.90;;;;;;6305802;22;20152;-42
2022/12/27 11:05:27;;;;;;;4.30;2.17;;;6.00;99.90;;;;;;6305987;22;20203;-44
2022/12/27 11:07:53;;;;;;;2.60;1.50;;;6.00;99.90;;;;;;6278592;22;20165;-43
2022/12/27 11:10:22;;;;;;;5.80;2.37;;;6.10;99.90;;;;;;6278549;22;20144;-43
2022/12/27 11:13:04;;;;;;;3.47;2.03;;;6.20;99.90;;;;;;6278540;22;20177;-43
2022/12/27 11:15:32;;;;;;;4.63;1.43;;;6.40;99.90;;;;;;6305841;22;20180;-43
2022/12/27 11:18:03;;;;;;;3.07;1.67;;;6.50;99.90;;;;;;6278626;22;20158;-43
2022/12/27 11:20:37;;;;;;;3.13;1.70;;;6.60;99.90;;;;;;6304163;22;20163;-44
2022/12/27 11:23:04;;;;;;;3.77;1.80;;;6.70;99.90;;;;;;6278574;22;20143;-43
2022/12/27 11:25:32;;;;;;;3.73;1.87;;;6.80;99.90;;;;;;6278595;22;20159;-43
2022/12/27 11:28:05;;;;;;;2.73;1.97;;;6.90;99.90;;;;;;6305503;22;20160;-41
2022/12/27 11:30:37;;;;;;;2.77;1.60;;;6.90;99.90;;;;;;6252902;22;20163;-42
2022/12/27 11:33:20;;;;;;;2.87;1.80;;;7.00;99.90;;;;;;6304543;22;20159;-44
2022/12/27 11:35:50;;;;;;;3.63;1.60;;;7.00;99.90;;;;;;6305543;22;20269;-43
2022/12/27 11:38:28;;;;;;;3.50;1.63;;;7.10;99.90;;;;;;6305616;22;20238;-44
2022/12/27 11:40:59;;;;;;;3.17;1.53;;;7.10;99.90;;;;;;6278676;22;20582;-44
2022/12/27 11:43:31;;;;;;;3.07;1.77;;;7.20;99.90;;;;;;6305742;22;20209;-44
2022/12/27 11:46:02;;;;;;;3.97;1.87;;;7.20;99.90;;;;;;6304115;22;20186;-44
2022/12/27 11:48:34;;;;;;;2.53;1.20;;;7.30;99.90;;;;;;6305505;22;20136;-44
2022/12/27 11:51:39;;;;;;;2.30;1.30;;;7.40;99.90;;;;;;6278470;22;20159;-44
2022/12/27 11:54:23;;;;;;;2.77;1.20;;;7.50;99.90;;;;;;6305999;22;20192;-44
2022/12/27 11:56:59;;;;;;;3.30;1.30;;;7.50;99.90;;;;;;6305350;22;20210;-44
2022/12/27 11:59:27;;;;;;;2.80;1.20;;;7.60;99.90;;;;;;6277813;22;20543;-43
2022/12/27 12:02:17;;;;;;;2.40;1.20;;;7.60;99.90;;;;;;6305398;22;20148;-44
2022/12/27 12:05:11;;;;;;;2.13;0.90;;;7.60;99.90;;;;;;6305607;22;20216;-44
2022/12/27 12:07:53;;;;;;;3.67;1.20;;;7.60;99.90;;;;;;6252013;22;20186;-43
2022/12/27 12:10:45;;;;;;;2.47;1.00;;;7.60;99.90;;;;;;6303654;22;20182;-44
2022/12/27 12:13:38;;;;;;;2.47;1.53;;;7.60;99.90;;;;;;6252146;22;20162;-42
2022/12/27 12:16:16;;;;;;;1.87;1.07;;;7.60;99.90;;;;;;6277926;22;20282;-44
2022/12/27 12:19:34;;;;;;;5.20;1.30;;;7.60;99.90;;;;;;6278064;22;20163;-44
2022/12/27 12:22:28;;;;;;;1.90;1.33;;;7.60;99.90;;;;;;6252117;22;20205;-44
2022/12/27 12:25:40;;;;;;;4.00;1.23;;;7.70;99.90;;;;;;6305704;22;20170;-45
2022/12/27 12:28:15;;;;;;;3.57;1.40;;;7.70;99.90;;;;;;6304241;22;20170;-44
2022/12/27 12:30:49;;;;;;;4.07;1.40;;;7.80;99.90;;;;;;6279823;22;20144;-44
2022/12/27 12:33:46;;;;;;;4.97;1.30;;;7.80;99.90;;;;;;6255409;22;20148;-45
2022/12/27 12:36:43;;;;;;;3.37;1.20;;;7.80;99.90;;;;;;6252708;22;20229;-43
2022/12/27 12:39:17;;;;;;;1.67;1.10;;;7.80;99.90;;;;;;6251994;22;20223;-45
2022/12/27 12:42:18;;;;;;;3.20;1.57;;;7.80;99.90;;;;;;6303847;22;20144;-42
2022/12/27 12:45:02;;;;;;;3.73;1.30;;;7.80;99.90;;;;;;6303655;22;20166;-44
2022/12/27 12:47:53;;;;;;;2.77;1.33;;;7.80;99.90;;;;;;6271779;22;20184;-44
2022/12/27 12:51:05;;;;;;;3.77;1.70;;;7.90;99.90;;;;;;6275200;22;20155;-43
2022/12/27 12:53:50;;;;;;;4.13;1.30;;;8.00;99.90;;;;;;6214136;22;20660;-44
2022/12/27 12:56:54;;;;;;;3.33;1.33;;;8.10;99.90;;;;;;6300924;22;20184;-44
2022/12/27 12:59:51;;;;;;;3.03;1.50;;;8.10;99.90;;;;;;6275681;22;20159;-43
2022/12/27 13:02:33;;;;;;;3.67;1.80;;;8.20;99.90;;;;;;6250362;22;20642;-43
2022/12/27 13:05:27;;;;;;;3.53;1.50;;;8.10;99.90;;;;;;6303460;22;20168;-43
2022/12/27 13:07:59;;;;;;;2.93;1.43;;;8.10;99.90;;;;;;6301990;22;20168;-43
2022/12/27 13:10:58;;;;;;;5.20;1.30;;;8.20;99.90;;;;;;6303781;22;20141;-44
2022/12/27 13:13:33;;;;;;;3.37;1.10;;;8.30;99.90;;;;;;6306393;22;20177;-44
2022/12/27 13:16:26;;;;;;;2.53;1.13;;;8.30;99.90;;;;;;6253840;22;20187;-44
2022/12/27 13:19:24;;;;;;;3.80;1.10;;;8.30;99.90;;;;;;6253878;22;20160;-43
2022/12/27 13:22:22;;;;;;;2.13;1.20;;;8.20;99.90;;;;;;6223550;22;20160;-44
2022/12/27 13:25:13;;;;;;;3.57;1.50;;;8.30;99.90;;;;;;6303986;22;20164;-43
2022/12/27 13:27:57;;;;;;;1.90;1.70;;;8.30;99.90;;;;;;6276730;22;20198;-44
2022/12/27 13:30:38;;;;;;;3.40;1.47;;;8.30;99.90;;;;;;6279067;22;20157;-44
2022/12/27 13:33:13;;;;;;;3.00;1.00;;;8.30;99.90;;;;;;6253288;22;20148;-44
2022/12/27 13:35:50;;;;;;;3.27;1.30;;;8.20;99.90;;;;;;6306557;22;20644;-43
2022/12/27 13:38:43;;;;;;;5.87;1.40;;;8.10;99.90;;;;;;6278996;22;20467;-44
2022/12/27 13:41:28;;;;;;;2.77;1.30;;;8.10;99.90;;;;;;6253662;22;20198;-44
2022/12/27 13:44:14;;;;;;;3.83;3.43;;;8.00;99.90;;;;;;6303039;22;20160;-42
2022/12/27 13:47:19;;;;;;;2.87;2.03;;;8.00;99.90;;;;;;6244435;22;20175;-44
2022/12/27 13:50:15;;;;;;;3.73;1.20;;;7.90;99.90;;;;;;6271094;22;20621;-42
2022/12/27 13:53:16;;;;;;;2.63;1.40;;;7.90;99.90;;;;;;6303751;22;20216;-44
2022/12/27 13:55:42;;;;;;;2.53;1.63;;;7.90;99.90;;;;;;6301086;22;20175;-43
2022/12/27 13:58:42;;;;;;;2.87;1.53;;;7.90;99.90;;;;;;6301294;22;20232;-40
2022/12/27 14:01:29;;;;;;;2.57;1.20;;;7.90;99.90;;;;;;6300535;22;20136;-43
2022/12/27 14:04:39;;;;;;;4.93;1.27;;;7.80;99.90;;;;;;6300691;22;20129;-45
2022/12/27 14:07:14;;;;;;;2.87;1.10;;;7.80;99.90;;;;;;6274372;22;20176;-43
2022/12/27 14:10:11;;;;;;;1.33;0.80;;;7.70;99.90;;;;;;6274653;22;20163;-44
2022/12/27 14:13:06;;;;;;;5.83;2.30;;;7.70;99.90;;;;;;6302528;22;20136;-43
2022/12/27 14:15:36;;;;;;;4.23;2.53;;;7.60;99.90;;;;;;6302813;22;20239;-42
2022/12/27 14:18:33;;;;;;;3.23;2.03;;;7.60;99.90;;;;;;6267047;22;20156;-44
2022/12/27 14:21:38;;;;;;;9.27;4.83;;;7.50;99.90;;;;;;6277672;22;20151;-43
2022/12/27 14:24:31;;;;;;;7.83;4.20;;;7.40;99.90;;;;;;6278910;22;20198;-42
2022/12/27 14:27:45;;;;;;;3.37;1.60;;;7.30;99.90;;;;;;6303353;22;20171;-42
2022/12/27 14:30:30;;;;;;;4.87;2.53;;;7.10;99.90;;;;;;6278685;22;20213;-44
2022/12/27 14:33:09;;;;;;;3.40;1.70;;;7.10;99.90;;;;;;6279290;22;20144;-43
2022/12/27 14:36:06;;;;;;;2.97;1.50;;;7.00;99.90;;;;;;6277205;22;20562;-44
2022/12/27 14:39:00;;;;;;;1.83;1.10;;;7.00;99.90;;;;;;6279106;22;20166;-44
2022/12/27 14:41:54;;;;;;;3.17;0.80;;;6.90;99.90;;;;;;6279496;22;20139;-42
2022/12/27 14:44:45;;;;;;;2.27;1.00;;;6.70;99.90;;;;;;6279527;22;20147;-43
2022/12/27 14:47:56;;;;;;;1.57;1.17;;;6.70;99.90;;;;;;6306400;22;20225;-44
2022/12/27 14:50:27;;;;;;;1.53;1.00;;;6.60;99.90;;;;;;6240973;23;20624;-43
2022/12/27 14:53:05;;;;;;;4.33;1.73;;;6.50;99.90;;;;;;6267849;22;20159;-43
2022/12/27 14:55:42;;;;;;;9.10;3.57;;;6.40;99.90;;;;;;6278657;22;20177;-43
2022/12/27 14:58:20;;;;;;;6.23;2.60;;;6.20;99.90;;;;;;6279015;22;20224;-42
2022/12/27 15:01:17;;;;;;;8.70;4.10;;;6.10;99.90;;;;;;6253914;22;20198;-44
2022/12/27 15:04:01;;;;;;;7.70;3.47;;;6.00;99.90;;;;;;6273120;22;20247;-44
2022/12/27 15:06:47;;;;;;;2.73;1.80;;;5.90;99.90;;;;;;6279420;22;20246;-42
2022/12/27 15:09:30;;;;;;;3.07;1.20;;;5.70;99.90;;;;;;6278068;22;20177;-43
2022/12/27 15:12:05;;;;;;;1.93;1.27;;;5.70;99.90;;;;;;6306121;22;20207;-42
2022/12/27 15:14:52;;;;;;;6.10;1.60;;;5.60;99.90;;;;;;6278763;22;20157;-43
2022/12/27 15:17:57;;;;;;;2.87;1.43;;;5.50;99.90;;;;;;6253196;22;20223;-43
2022/12/27 15:20:35;;;;;;;2.77;1.20;;;5.40;99.90;;;;;;6268470;22;20205;-43
2022/12/27 15:23:18;;;;;;;2.30;1.13;;;5.20;99.90;;;;;;6278961;22;20242;-43
2022/12/27 15:26:02;;;;;;;3.07;1.43;;;5.20;99.90;;;;;;6305288;22;20186;-43
2022/12/27 15:28:40;;;;;;;3.13;1.43;;;5.20;99.90;;;;;;6306321;22;20189;-42
2022/12/27 15:31:23;;;;;;;4.70;1.33;;;5.20;99.90;;;;;;6279367;22;20600;-43